Campanya meteocatpedra

Dades de l'estació automàtica Alcarràs

?
?
Resum diari 20:30 TU
Dades diàries de l'estació meteorològica
Temperatura mitjana 24.5 °C
Temperatura màxima 34.5 °C 15:31 TU
Temperatura mínima 15.5 °C 5:00 TU
Humitat relativa mitjana 62%
Precipitació acumulada 0.0 mm
Ratxa màxima del vent (2 m) 22.3 km/h - 243º 16:43 TU

El tram horari està expressat en Temps Universal (TU). Cal sumar una hora en horari d'hivern i dues en horari d'estiu per passar a l'hora oficial.

Alcarràs

Metadades estació meteorol´gica
Municipi Alcarràs
Comarca Segrià
Altitud 122 m
Data alta 31.07.2013
Estat actual Operativa
Dades de període
Període
TU
TM
°C
TX
°C
TN
°C
HRM
%
PPT
mm
VVM (2 m)
km/h
DVM (2 m)
graus
VVX (2 m)
km/h
00:00 - 00:30 18.9 19.3 18.4 82 0.0 0.4 357 2.9
00:30 - 01:00 18.1 18.4 17.8 87 0.0 0.4 15 2.5
01:00 - 01:30 17.6 17.9 17.2 90 0.0 0.4 359 4.0
01:30 - 02:00 16.8 17.1 16.6 95 0.0 0.4 356 2.5
02:00 - 02:30 16.3 16.6 16.0 98 0.0 0.0 19 1.1
02:30 - 03:00 16.4 16.9 16.0 99 0.0 0.4 284 2.9
03:00 - 03:30 16.4 16.7 16.0 98 0.0 0.4 342 2.2
03:30 - 04:00 16.2 16.3 16.1 99 0.0 0.4 341 2.5
04:00 - 04:30 15.8 16.2 15.6 99 0.0 0.0 0 0.0
04:30 - 05:00 15.6 15.7 15.5 100 0.0 0.0 0 0.0
05:00 - 05:30 16.8 18.7 15.5 97 0.0 0.0 0 0.0
05:30 - 06:00 19.7 20.4 18.8 83 0.0 0.0 4 1.4
06:00 - 06:30 20.8 21.2 20.4 75 0.0 0.7 183 4.3
06:30 - 07:00 21.7 22.0 21.4 68 0.0 1.4 186 5.4
07:00 - 07:30 22.5 23.1 21.8 63 0.0 2.2 178 6.8
07:30 - 08:00 22.8 23.1 22.5 60 0.0 2.9 163 8.3
08:00 - 08:30 23.5 24.1 23.1 56 0.0 2.5 218 9.0
08:30 - 09:00 24.3 24.6 23.9 54 0.0 2.5 197 7.9
09:00 - 09:30 25.1 26.1 24.6 50 0.0 2.5 183 7.6
09:30 - 10:00 25.8 26.5 25.2 47 0.0 2.5 204 9.0
10:00 - 10:30 26.6 27.2 26.0 44 0.0 2.5 198 10.4
10:30 - 11:00 27.5 28.0 27.1 42 0.0 2.9 213 9.0
11:00 - 11:30 28.5 29.5 27.6 38 0.0 2.9 250 11.2
11:30 - 12:00 29.3 30.1 28.8 36 0.0 2.9 216 8.6
12:00 - 12:30 30.3 30.9 29.8 34 0.0 2.9 202 9.0
12:30 - 13:00 31.0 31.6 30.1 33 0.0 2.9 207 11.2
13:00 - 13:30 31.7 32.6 30.6 32 0.0 2.5 205 9.0
13:30 - 14:00 32.6 32.9 32.3 31 0.0 2.5 212 9.0
14:00 - 14:30 33.1 33.8 31.9 28 0.0 2.5 258 10.1
14:30 - 15:00 33.0 33.5 32.2 30 0.0 2.9 191 10.1
15:00 - 15:30 33.7 34.3 32.6 28 0.0 1.8 215 7.6
15:30 - 16:00 33.0 34.5 31.8 36 0.0 3.6 191 14.8
16:00 - 16:30 31.1 31.6 30.9 46 0.0 5.0 198 15.5
16:30 - 17:00 30.3 30.7 29.8 48 0.0 4.7 197 22.3
17:00 - 17:30 29.2 29.8 28.6 51 0.0 5.8 204 22.3
17:30 - 18:00 28.3 28.7 27.8 54 0.0 5.4 200 20.2
18:00 - 18:30 27.4 27.8 26.9 56 0.0 6.1 206 18.7
18:30 - 19:00 26.4 26.9 26.0 59 0.0 4.0 197 20.2
19:00 - 19:30 25.6 26.0 25.0 61 0.0 1.4 165 8.3
19:30 - 20:00 24.2 25.0 23.6 66 0.0 1.8 151 8.6
20:00 - 20:30 23.7 24.0 23.2 66 0.0 1.8 208 6.8
20:30 - 21:00 22.3 23.1 21.8 72 0.0 1.4 66 6.1

Les dades en taronja només han passat un control de qualitat automàtic. Resta pendent la seva validació definitiva.